createdAt,value
2022-11-22T00:00:19.038Z,9.667950
2022-11-22T00:01:19.103Z,9.667978
2022-11-22T00:02:19.122Z,9.667986
2022-11-22T00:03:19.001Z,9.668016
2022-11-22T00:04:19.001Z,9.667979
2022-11-22T00:05:18.982Z,9.667964
2022-11-22T00:06:18.965Z,9.667980
2022-11-22T00:07:19.017Z,9.668003
2022-11-22T00:08:18.971Z,9.668029
2022-11-22T00:09:18.994Z,9.668014
2022-11-22T00:10:18.913Z,9.668019
2022-11-22T00:11:19.898Z,9.668037
2022-11-22T00:12:18.880Z,9.668044
2022-11-22T00:13:18.946Z,9.668042
2022-11-22T00:14:18.951Z,9.668050
2022-11-22T00:15:18.908Z,9.667994
2022-11-22T00:16:18.884Z,9.668015
2022-11-22T00:17:18.897Z,9.668040
2022-11-22T00:18:18.926Z,9.668006
2022-11-22T00:19:18.881Z,9.668012
2022-11-22T00:20:18.845Z,9.668037
2022-11-22T00:21:18.841Z,9.668006
2022-11-22T00:22:18.872Z,9.668001
2022-11-22T00:23:18.901Z,9.668040
2022-11-22T00:24:18.796Z,9.668035
2022-11-22T00:25:18.820Z,9.668069
2022-11-22T00:26:18.821Z,9.668012
2022-11-22T00:27:18.814Z,9.667998
2022-11-22T00:28:18.774Z,9.667980
2022-11-22T00:29:18.801Z,9.667931
2022-11-22T00:30:18.760Z,9.667985
2022-11-22T00:31:18.756Z,9.667970
2022-11-22T00:32:18.763Z,9.667986
2022-11-22T00:33:18.804Z,9.667929
2022-11-22T00:34:18.786Z,9.667958
2022-11-22T00:35:18.722Z,9.667918
2022-11-22T00:36:18.771Z,9.667945
2022-11-22T00:37:18.709Z,9.667954
2022-11-22T00:38:18.679Z,9.667961
2022-11-22T00:39:18.709Z,9.668031
2022-11-22T00:40:18.687Z,9.668061
2022-11-22T00:41:18.662Z,9.668064
2022-11-22T00:42:18.708Z,9.668052
2022-11-22T00:43:18.688Z,9.668032
2022-11-22T00:44:18.652Z,9.667999
2022-11-22T00:45:18.664Z,9.667997
2022-11-22T00:46:18.740Z,9.668052
2022-11-22T00:47:18.640Z,9.667970
2022-11-22T00:48:18.713Z,9.667910
2022-11-22T00:49:18.656Z,9.668072
2022-11-22T00:50:18.605Z,9.667956
2022-11-22T00:51:18.596Z,9.667982
2022-11-22T00:52:18.665Z,9.668026
2022-11-22T00:53:18.582Z,9.668037
2022-11-22T00:54:18.609Z,9.667984
2022-11-22T00:55:18.560Z,9.668050
2022-11-22T00:56:18.614Z,9.668029
2022-11-22T00:57:19.509Z,9.668056
2022-11-22T00:58:50.974Z,9.668062
2022-11-22T00:59:18.597Z,9.668022
2022-11-22T01:00:18.565Z,9.668080
2022-11-22T01:01:18.714Z,9.668043
2022-11-22T01:02:18.523Z,9.667975
2022-11-22T01:03:18.527Z,9.667957
2022-11-22T01:04:18.553Z,9.667975
2022-11-22T01:05:18.477Z,9.667985
2022-11-22T01:06:18.470Z,9.667981
2022-11-22T01:07:18.599Z,9.667985
2022-11-22T01:08:18.458Z,9.667933
2022-11-22T01:09:18.503Z,9.667980
2022-11-22T01:10:18.521Z,9.667982
2022-11-22T01:11:18.444Z,9.667983
2022-11-22T01:12:18.414Z,9.667993
2022-11-22T01:13:18.415Z,9.667996
2022-11-22T01:14:18.452Z,9.667985
2022-11-22T01:15:18.481Z,9.667969
2022-11-22T01:16:18.391Z,9.667953
2022-11-22T01:17:18.408Z,9.667983
2022-11-22T01:18:18.448Z,9.667978
2022-11-22T01:19:19.388Z,9.667994
2022-11-22T01:20:18.381Z,9.668014
2022-11-22T01:21:18.368Z,9.667989
2022-11-22T01:22:18.399Z,9.668021
2022-11-22T01:23:18.423Z,9.667999
2022-11-22T01:24:18.376Z,9.668015
2022-11-22T01:25:18.350Z,9.668001
2022-11-22T01:26:18.348Z,9.668020
2022-11-22T01:27:18.309Z,9.668038
2022-11-22T01:28:18.386Z,9.668021
2022-11-22T01:29:19.345Z,9.668024
2022-11-22T01:30:18.303Z,9.667985
2022-11-22T01:31:18.281Z,9.668011
2022-11-22T01:32:18.283Z,9.667995
2022-11-22T01:33:18.306Z,9.667950
2022-11-22T01:34:18.270Z,9.667926
2022-11-22T01:35:18.289Z,9.667941
2022-11-22T01:36:18.249Z,9.667964
2022-11-22T01:37:18.343Z,9.668011
2022-11-22T01:38:18.202Z,9.667932
2022-11-22T01:39:18.234Z,9.668015
2022-11-22T01:40:18.246Z,9.667974
2022-11-22T01:41:18.218Z,9.668027
2022-11-22T01:42:18.195Z,9.667987
2022-11-22T01:43:18.189Z,9.668027
2022-11-22T01:44:18.208Z,9.667969
2022-11-22T01:45:18.228Z,9.667985
2022-11-22T01:46:18.166Z,9.667953
2022-11-22T01:47:18.170Z,9.668035
2022-11-22T01:48:18.195Z,9.667990
2022-11-22T01:49:18.181Z,9.668019
2022-11-22T01:50:18.152Z,9.668011
2022-11-22T01:51:18.151Z,9.668031
2022-11-22T01:52:18.120Z,9.668001
2022-11-22T01:53:18.158Z,9.667940
2022-11-22T01:54:18.121Z,9.667937
2022-11-22T01:55:18.186Z,9.667980
2022-11-22T01:56:18.090Z,9.668020
2022-11-22T01:57:18.168Z,9.667943
2022-11-22T01:58:18.152Z,9.667952
2022-11-22T01:59:18.109Z,9.667897
2022-11-22T02:00:18.074Z,9.668030
2022-11-22T02:01:18.137Z,9.668045
2022-11-22T02:02:18.096Z,9.667964
2022-11-22T02:03:18.046Z,9.668005
2022-11-22T02:04:18.057Z,9.668022
2022-11-22T02:05:18.033Z,9.667961
2022-11-22T02:06:18.060Z,9.667924
2022-11-22T02:07:18.050Z,9.667955
2022-11-22T02:08:18.019Z,9.667997
2022-11-22T02:09:18.031Z,9.667952
2022-11-22T02:10:18.011Z,9.667990
2022-11-22T02:11:17.994Z,9.668011
2022-11-22T02:12:18.009Z,9.667992
2022-11-22T02:13:17.994Z,9.668026
2022-11-22T02:14:17.969Z,9.668008
2022-11-22T02:15:17.954Z,9.667963
2022-11-22T02:16:18.007Z,9.667963
2022-11-22T02:17:17.998Z,9.667958
2022-11-22T02:18:17.962Z,9.667953
2022-11-22T02:19:17.928Z,9.667975
2022-11-22T02:20:17.952Z,9.667951
2022-11-22T02:21:17.912Z,9.667953
2022-11-22T02:22:17.927Z,9.667998
2022-11-22T02:23:17.915Z,9.667965
2022-11-22T02:24:17.920Z,9.667939
2022-11-22T02:25:17.869Z,9.667969
2022-11-22T02:26:17.880Z,9.667930
2022-11-22T02:27:17.919Z,9.667963
2022-11-22T02:28:49.794Z,9.667922
2022-11-22T02:29:17.840Z,9.667940
2022-11-22T02:30:17.902Z,9.667945
2022-11-22T02:31:17.821Z,9.667932
2022-11-22T02:32:18.836Z,9.667890
2022-11-22T02:33:17.829Z,9.667946
2022-11-22T02:34:17.827Z,9.667911
2022-11-22T02:35:17.793Z,9.667899
2022-11-22T02:36:17.818Z,9.667986
2022-11-22T02:37:17.780Z,9.668053
2022-11-22T02:38:17.771Z,9.667945
2022-11-22T02:39:17.799Z,9.667988
2022-11-22T02:40:17.770Z,9.667922
2022-11-22T02:41:17.744Z,9.667907
2022-11-22T02:42:17.741Z,9.667879
2022-11-22T02:43:17.731Z,9.667838
2022-11-22T02:44:17.749Z,9.667849
2022-11-22T02:45:17.731Z,9.667895
2022-11-22T02:46:17.711Z,9.667962
2022-11-22T02:47:17.714Z,9.667971
2022-11-22T02:48:17.690Z,9.667981
2022-11-22T02:49:17.704Z,9.667834
2022-11-22T02:50:17.703Z,9.667887
2022-11-22T02:51:17.670Z,9.667992
2022-11-22T02:52:17.676Z,9.667948
2022-11-22T02:53:17.648Z,9.667962
2022-11-22T02:54:17.718Z,9.667933
2022-11-22T02:55:17.656Z,9.667966
2022-11-22T02:56:17.632Z,9.667997
2022-11-22T02:57:17.660Z,9.667961
2022-11-22T02:58:17.623Z,9.667941
2022-11-22T02:59:17.607Z,9.667950
2022-11-22T03:00:17.604Z,9.667969
2022-11-22T03:01:17.670Z,9.667976
2022-11-22T03:02:17.610Z,9.667983
2022-11-22T03:03:17.589Z,9.667968
2022-11-22T03:04:17.621Z,9.667877
2022-11-22T03:05:17.580Z,9.667981
2022-11-22T03:06:17.586Z,9.668051
2022-11-22T03:07:17.633Z,9.667978
2022-11-22T03:08:17.547Z,9.667989
2022-11-22T03:09:17.561Z,9.668001
2022-11-22T03:10:17.524Z,9.668058
2022-11-22T03:11:17.574Z,9.668070
2022-11-22T03:12:17.519Z,9.668009
2022-11-22T03:13:17.522Z,9.668007
2022-11-22T03:14:17.502Z,9.668000
2022-11-22T03:15:17.506Z,9.667991
2022-11-22T03:16:17.514Z,9.668018
2022-11-22T03:17:17.470Z,9.667957
2022-11-22T03:18:17.510Z,9.667922
2022-11-22T03:19:17.454Z,9.667959
2022-11-22T03:20:17.455Z,9.667937
2022-11-22T03:21:17.467Z,9.667959
2022-11-22T03:22:17.436Z,9.667943
2022-11-22T03:23:17.509Z,9.667958
2022-11-22T03:24:17.420Z,9.667964
2022-11-22T03:25:17.464Z,9.667987
2022-11-22T03:26:17.501Z,9.667958
2022-11-22T03:27:17.398Z,9.667966
2022-11-22T03:28:17.409Z,9.667974
2022-11-22T03:29:17.388Z,9.667979
2022-11-22T03:30:17.384Z,9.667994
2022-11-22T03:31:17.380Z,9.667964
2022-11-22T03:32:17.362Z,9.667977
2022-11-22T03:33:17.371Z,9.667962
2022-11-22T03:34:17.340Z,9.667953
2022-11-22T03:35:17.386Z,9.667978
2022-11-22T03:36:17.336Z,9.667947
2022-11-22T03:37:17.354Z,9.667969
2022-11-22T03:38:17.326Z,9.667975
2022-11-22T03:39:17.328Z,9.667967
2022-11-22T03:40:17.314Z,9.667954
2022-11-22T03:41:17.308Z,9.667960
2022-11-22T03:42:21.629Z,9.667959
2022-11-22T03:43:18.279Z,9.667975
2022-11-22T03:44:17.324Z,9.667988
2022-11-22T03:45:17.320Z,9.667970
2022-11-22T03:46:17.276Z,9.667984
2022-11-22T03:47:17.240Z,9.668004
2022-11-22T04:09:55.678Z,9.667884
2022-11-22T04:10:55.667Z,9.667895
2022-11-22T04:11:55.682Z,9.667818
2022-11-22T04:12:55.644Z,9.667640
2022-11-22T04:13:55.657Z,9.667995
2022-11-22T04:14:55.609Z,9.667861
2022-11-22T04:15:55.636Z,9.668076
2022-11-22T04:16:55.597Z,9.668061
2022-11-22T04:17:55.631Z,9.668022
2022-11-22T04:18:55.694Z,9.668022
2022-11-22T04:19:55.616Z,9.668055
2022-11-22T04:20:55.591Z,9.667997
2022-11-22T04:21:55.570Z,9.667977
2022-11-22T04:22:55.576Z,9.668052
2022-11-22T04:23:55.593Z,9.667944
2022-11-22T04:24:55.663Z,9.667892
2022-11-22T04:25:55.576Z,9.668012
2022-11-22T04:26:55.599Z,9.667969
2022-11-22T04:27:55.543Z,9.667941
2022-11-22T04:29:09.127Z,9.667976
2022-11-22T04:29:57.520Z,9.668031
2022-11-22T04:30:55.534Z,9.668034
2022-11-22T04:31:55.559Z,9.668019
2022-11-22T04:32:55.500Z,9.667980
2022-11-22T04:33:55.517Z,9.667910
2022-11-22T04:34:55.491Z,9.667944
2022-11-22T04:35:55.497Z,9.667989
2022-11-22T04:36:55.456Z,9.667968
2022-11-22T04:37:55.489Z,9.667965
2022-11-22T04:38:55.479Z,9.667898
2022-11-22T04:39:55.475Z,9.668042
2022-11-22T04:40:55.431Z,9.668105
2022-11-22T04:41:55.435Z,9.668046
2022-11-22T04:42:55.412Z,9.668035
2022-11-22T04:43:55.431Z,9.667988
2022-11-22T04:44:55.379Z,9.667967
2022-11-22T04:45:55.389Z,9.667971
2022-11-22T04:46:55.431Z,9.667993
2022-11-22T04:47:55.380Z,9.667997
2022-11-22T04:48:55.372Z,9.667969
2022-11-22T04:49:55.387Z,9.668012
2022-11-22T04:50:55.339Z,9.668006
2022-11-22T04:51:55.353Z,9.667963
2022-11-22T04:52:55.362Z,9.667975
2022-11-22T04:53:55.320Z,9.668001
2022-11-22T04:54:55.350Z,9.667967
2022-11-22T04:55:55.329Z,9.668013
2022-11-22T04:56:55.330Z,9.667932
2022-11-22T04:57:59.529Z,9.667962
2022-11-22T04:58:57.275Z,9.667899
2022-11-22T04:59:55.311Z,9.667940
2022-11-22T05:00:55.328Z,9.667958
2022-11-22T05:01:55.294Z,9.668030
2022-11-22T05:02:55.268Z,9.667961
2022-11-22T05:03:55.246Z,9.667886
2022-11-22T05:04:55.280Z,9.667978
2022-11-22T05:05:55.225Z,9.667969
2022-11-22T05:06:55.262Z,9.667917
2022-11-22T05:07:55.236Z,9.667973
2022-11-22T05:08:55.804Z,9.668004
2022-11-22T05:09:55.198Z,9.667984
2022-11-22T05:10:55.189Z,9.667992
2022-11-22T05:11:55.198Z,9.668012
2022-11-22T05:12:55.218Z,9.668015
2022-11-22T05:13:55.204Z,9.667994
2022-11-22T05:14:55.180Z,9.667965
2022-11-22T05:15:55.179Z,9.668073
2022-11-22T05:16:55.156Z,9.667974
2022-11-22T05:17:55.170Z,9.667962
2022-11-22T05:18:55.143Z,9.667962
2022-11-22T05:19:55.142Z,9.667975
2022-11-22T05:20:55.129Z,9.667987
2022-11-22T05:21:55.104Z,9.667986
2022-11-22T05:22:55.153Z,9.667966
2022-11-22T05:23:55.140Z,9.667991
2022-11-22T05:24:55.143Z,9.667944
2022-11-22T05:25:55.110Z,9.667997
2022-11-22T05:26:55.118Z,9.667937
2022-11-22T05:27:55.107Z,9.667983
2022-11-22T05:28:55.069Z,9.668060
2022-11-22T05:29:55.060Z,9.667935
2022-11-22T05:30:55.048Z,9.667903
2022-11-22T05:31:55.057Z,9.667917
2022-11-22T05:32:55.040Z,9.667901
2022-11-22T05:33:55.067Z,9.667966
2022-11-22T05:34:55.025Z,9.667904
2022-11-22T05:35:55.026Z,9.667925
2022-11-22T05:36:55.007Z,9.667927
2022-11-22T05:37:55.041Z,9.667907
2022-11-22T05:38:55.006Z,9.667962
2022-11-22T05:39:54.985Z,9.667920
2022-11-22T05:40:55.013Z,9.667958
2022-11-22T05:41:55.818Z,9.667967
2022-11-22T05:42:54.980Z,9.667937
2022-11-22T05:43:54.965Z,9.667965
2022-11-22T05:44:54.945Z,9.667894
2022-11-22T05:45:55.008Z,9.667858
2022-11-22T05:46:55.049Z,9.667909
2022-11-22T05:47:54.934Z,9.667924
2022-11-22T05:48:54.947Z,9.667954
2022-11-22T05:49:54.974Z,9.667953
2022-11-22T05:50:55.951Z,9.668058
2022-11-22T05:51:54.893Z,9.668000
2022-11-22T05:52:54.906Z,9.668046
2022-11-22T05:53:54.899Z,9.668038
2022-11-22T05:54:54.879Z,9.668019
2022-11-22T05:55:54.872Z,9.668039
2022-11-22T05:56:54.890Z,9.668029
2022-11-22T05:57:54.871Z,9.668034
2022-11-22T05:58:54.841Z,9.667949
2022-11-22T05:59:54.833Z,9.668049
2022-11-22T06:00:54.819Z,9.667973
2022-11-22T06:01:54.871Z,9.667954
2022-11-22T06:02:54.808Z,9.667944
2022-11-22T06:03:54.789Z,9.667927
2022-11-22T06:04:54.879Z,9.667946
2022-11-22T06:05:54.784Z,9.667912
2022-11-22T06:06:54.832Z,9.667969
2022-11-22T06:07:54.839Z,9.667987
2022-11-22T06:08:54.768Z,9.667983
2022-11-22T06:09:54.743Z,9.668017
2022-11-22T06:10:54.743Z,9.667999
2022-11-22T06:11:54.752Z,9.667999
2022-11-22T06:12:54.755Z,9.667983
2022-11-22T06:13:54.743Z,9.667926
2022-11-22T06:14:54.732Z,9.667936
2022-11-22T06:15:54.731Z,9.667952
2022-11-22T06:16:54.760Z,9.667969
2022-11-22T06:17:54.763Z,9.667999
2022-11-22T06:18:54.701Z,9.667966
2022-11-22T06:19:54.778Z,9.667966
2022-11-22T06:20:54.725Z,9.668012
2022-11-22T06:21:54.680Z,9.668011
2022-11-22T06:22:54.761Z,9.667968
2022-11-22T06:23:54.668Z,9.667977
2022-11-22T06:24:54.688Z,9.667967
2022-11-22T06:25:54.761Z,9.667847
2022-11-22T06:26:54.743Z,9.667893
2022-11-22T06:27:54.647Z,9.667941
2022-11-22T06:28:54.666Z,9.667918
2022-11-22T06:29:54.641Z,9.668004
2022-11-22T06:30:54.605Z,9.667970
2022-11-22T06:31:55.911Z,9.667972
2022-11-22T06:32:54.596Z,9.667987
2022-11-22T06:33:54.599Z,9.667961
2022-11-22T06:34:54.613Z,9.667936
2022-11-22T06:35:54.604Z,9.667891
2022-11-22T06:36:54.633Z,9.667885
2022-11-22T06:38:00.386Z,9.667947
2022-11-22T06:38:56.581Z,9.667995
2022-11-22T06:39:54.534Z,9.668037
2022-11-22T06:40:54.527Z,9.667994
2022-11-22T06:41:54.532Z,9.667996
2022-11-22T06:42:54.534Z,9.668018
2022-11-22T06:43:54.523Z,9.667998
2022-11-22T06:44:54.487Z,9.667954
2022-11-22T06:45:54.504Z,9.668028
2022-11-22T06:46:54.476Z,9.668028
2022-11-22T06:47:54.510Z,9.667973
2022-11-22T06:48:54.485Z,9.667960
2022-11-22T06:49:54.457Z,9.667973
2022-11-22T06:50:54.505Z,9.667998
2022-11-22T06:51:54.434Z,9.668009
2022-11-22T06:52:54.497Z,9.667900
2022-11-22T06:53:54.461Z,9.667969
2022-11-22T06:54:54.578Z,9.668015
2022-11-22T06:55:59.781Z,9.668047
2022-11-22T06:56:56.394Z,9.668006
2022-11-22T06:57:54.420Z,9.668024
2022-11-22T06:58:54.438Z,9.668009
2022-11-22T06:59:54.422Z,9.668005
2022-11-22T07:00:54.487Z,9.667973
2022-11-22T07:01:54.458Z,9.668001
2022-11-22T07:02:54.379Z,9.668016
2022-11-22T07:03:54.402Z,9.668056
2022-11-22T07:05:23.310Z,9.668041
2022-11-22T07:05:56.372Z,9.668022
2022-11-22T07:06:54.326Z,9.668015
2022-11-22T07:07:56.781Z,9.668013
2022-11-22T07:08:55.337Z,9.667994
2022-11-22T07:09:56.602Z,9.668015
2022-11-22T07:10:55.281Z,9.668000
2022-11-22T07:11:54.296Z,9.668033
2022-11-22T07:12:54.309Z,9.668088
2022-11-22T07:13:54.300Z,9.668064
2022-11-22T07:15:26.687Z,9.668031
2022-11-22T07:15:54.275Z,9.668028
2022-11-22T07:16:54.301Z,9.668062
2022-11-22T07:17:54.281Z,9.668051
2022-11-22T07:18:54.220Z,9.668064
2022-11-22T07:19:54.235Z,9.668029
2022-11-22T07:20:54.197Z,9.668001
2022-11-22T07:21:54.218Z,9.667994
2022-11-22T07:22:54.193Z,9.668014
2022-11-22T07:23:54.249Z,9.668048
2022-11-22T07:24:54.246Z,9.668010
2022-11-22T07:25:54.199Z,9.668067
2022-11-22T07:26:54.222Z,9.668068
2022-11-22T07:27:54.171Z,9.668036
2022-11-22T07:28:54.154Z,9.668057
2022-11-22T07:29:54.153Z,9.668009
2022-11-22T07:30:54.180Z,9.667997
2022-11-22T07:31:54.155Z,9.668054
2022-11-22T07:32:54.138Z,9.667999
2022-11-22T07:33:55.150Z,9.667958
2022-11-22T07:34:54.116Z,9.668007
2022-11-22T07:35:54.120Z,9.668054
2022-11-22T07:36:59.097Z,9.667985
2022-11-22T07:37:56.140Z,9.668026
2022-11-22T07:38:54.101Z,9.668045
2022-11-22T07:39:54.085Z,9.667979
2022-11-22T07:40:54.069Z,9.667990
2022-11-22T07:41:54.048Z,9.667998
2022-11-22T07:42:58.277Z,9.668005
2022-11-22T07:43:55.135Z,9.668009
2022-11-22T07:44:54.022Z,9.668018
2022-11-22T07:45:54.841Z,9.668050
2022-11-22T07:46:54.032Z,9.668004
2022-11-22T07:47:54.004Z,9.668051
2022-11-22T07:48:54.037Z,9.668045
2022-11-22T07:49:54.014Z,9.668020
2022-11-22T07:50:53.994Z,9.668014
2022-11-22T07:51:53.994Z,9.668017
2022-11-22T07:52:53.994Z,9.668040
2022-11-22T07:53:53.994Z,9.668038
2022-11-22T07:54:53.974Z,9.668044
2022-11-22T07:55:54.002Z,9.668046
2022-11-22T07:56:53.937Z,9.668042
2022-11-22T07:57:53.940Z,9.668019
2022-11-22T07:58:54.014Z,9.667997
2022-11-22T07:59:53.918Z,9.668006
2022-11-22T08:00:53.995Z,9.668028
2022-11-22T08:01:54.139Z,9.668009
2022-11-22T08:02:54.010Z,9.668000
2022-11-22T08:03:53.902Z,9.668027
2022-11-22T08:04:53.939Z,9.667994
2022-11-22T08:05:53.912Z,9.667994
2022-11-22T08:06:53.999Z,9.667998
2022-11-22T08:07:53.908Z,9.668002
2022-11-22T08:09:00.357Z,9.668056
2022-11-22T08:09:55.890Z,9.668023
2022-11-22T08:10:53.843Z,9.667977
2022-11-22T08:11:53.880Z,9.667933
2022-11-22T08:12:53.834Z,9.667969
2022-11-22T08:13:53.870Z,9.667986
2022-11-22T08:14:53.875Z,9.667996
2022-11-22T08:15:54.847Z,9.667964
2022-11-22T08:16:54.938Z,9.667925
2022-11-22T08:17:53.796Z,9.667975
2022-11-22T08:18:53.876Z,9.668004
2022-11-22T08:19:53.880Z,9.668028
2022-11-22T08:20:53.773Z,9.668064
2022-11-22T08:21:58.244Z,9.668098
2022-11-22T08:22:54.765Z,9.668022
2022-11-22T08:23:53.776Z,9.668072
2022-11-22T08:24:53.774Z,9.668107
2022-11-22T08:25:53.775Z,9.668074
2022-11-22T08:26:53.752Z,9.668088
2022-11-22T08:28:25.672Z,9.668060
2022-11-22T08:28:53.766Z,9.668026
2022-11-22T08:29:53.757Z,9.668087
2022-11-22T08:30:53.731Z,9.668066
2022-11-22T08:31:53.687Z,9.668137
2022-11-22T08:32:53.719Z,9.668059
2022-11-22T08:33:53.708Z,9.668028
2022-11-22T08:34:53.748Z,9.668096
2022-11-22T08:35:53.712Z,9.668081
2022-11-22T08:36:53.670Z,9.668125
2022-11-22T08:37:53.654Z,9.668104
2022-11-22T08:38:53.681Z,9.668056
2022-11-22T08:39:53.644Z,9.668097
2022-11-22T08:40:53.617Z,9.668110
2022-11-22T08:41:53.646Z,9.668077
2022-11-22T08:42:53.591Z,9.668134
2022-11-22T08:44:26.633Z,9.668158
2022-11-22T08:44:53.586Z,9.668102
2022-11-22T08:45:53.635Z,9.668120
2022-11-22T08:46:53.577Z,9.668092
2022-11-22T08:47:53.554Z,9.668105
2022-11-22T08:48:53.576Z,9.668088
2022-11-22T08:49:53.580Z,9.668084
2022-11-22T08:50:53.695Z,9.668095
2022-11-22T08:51:53.606Z,9.668097
2022-11-22T08:52:53.513Z,9.668134
2022-11-22T08:53:53.533Z,9.668119
2022-11-22T08:54:53.514Z,9.668092
2022-11-22T08:55:53.476Z,9.668179
2022-11-22T08:56:53.518Z,9.668149
2022-11-22T08:57:53.573Z,9.668055
2022-11-22T08:58:53.527Z,9.668098
2022-11-22T08:59:53.488Z,9.668095
2022-11-22T09:00:53.549Z,9.668082
2022-11-22T09:01:53.550Z,9.668115
2022-11-22T09:02:53.434Z,9.668087
2022-11-22T09:03:53.484Z,9.668047
2022-11-22T09:04:53.426Z,9.668080
2022-11-22T09:08:24.674Z,9.668087
2022-11-22T09:09:08.691Z,9.668051
2022-11-22T09:09:55.410Z,9.668068
2022-11-22T09:10:53.390Z,9.668062
2022-11-22T09:11:53.379Z,9.668107
2022-11-22T09:12:53.392Z,9.668087
2022-11-22T09:13:53.364Z,9.668078
2022-11-22T09:14:53.354Z,9.668069
2022-11-22T09:15:53.357Z,9.668098
2022-11-22T09:16:53.367Z,9.668111
2022-11-22T09:17:53.343Z,9.668114
2022-11-22T09:18:53.313Z,9.668072
2022-11-22T09:19:53.312Z,9.668071
2022-11-22T09:20:53.319Z,9.668094
2022-11-22T09:21:53.322Z,9.668079
2022-11-22T09:22:53.374Z,9.668066
2022-11-22T09:23:53.333Z,9.668067
2022-11-22T09:24:53.263Z,9.668081
2022-11-22T09:25:53.318Z,9.668120
2022-11-22T09:27:25.169Z,9.668099
2022-11-22T09:27:53.354Z,9.668072
2022-11-22T09:28:53.275Z,9.668072
2022-11-22T09:29:53.243Z,9.668053
2022-11-22T09:30:53.307Z,9.668079
2022-11-22T09:31:53.247Z,9.668089
2022-11-22T09:32:53.201Z,9.668077
2022-11-22T09:33:53.194Z,9.668079
2022-11-22T09:34:53.236Z,9.668099
2022-11-22T09:35:53.225Z,9.668105
2022-11-22T09:36:53.202Z,9.668097
2022-11-22T09:37:53.214Z,9.668106
2022-11-22T09:38:53.247Z,9.668108
2022-11-22T09:39:53.151Z,9.668083
2022-11-22T09:40:54.210Z,9.668092
2022-11-22T09:41:53.185Z,9.668092
2022-11-22T09:42:53.146Z,9.668044
2022-11-22T09:43:53.128Z,9.668113
2022-11-22T09:44:53.113Z,9.668123
2022-11-22T09:45:53.127Z,9.668114
2022-11-22T09:46:53.144Z,9.668088
2022-11-22T09:47:53.143Z,9.668098
2022-11-22T09:48:53.091Z,9.668080
2022-11-22T09:49:53.114Z,9.668097
2022-11-22T09:50:53.054Z,9.668095
2022-11-22T09:51:53.056Z,9.668097
2022-11-22T09:52:53.151Z,9.668075
2022-11-22T09:53:53.078Z,9.668025
2022-11-22T09:54:53.119Z,9.668040
2022-11-22T09:55:53.051Z,9.668056
2022-11-22T09:56:53.037Z,9.668052
2022-11-22T09:57:53.028Z,9.668069
2022-11-22T09:58:53.058Z,9.668065
2022-11-22T09:59:53.006Z,9.668062
2022-11-22T10:00:53.086Z,9.668034
2022-11-22T10:01:53.017Z,9.668062
2022-11-22T10:03:00.946Z,9.668072
2022-11-22T10:03:55.124Z,9.668077
2022-11-22T10:04:52.975Z,9.668068
2022-11-22T10:05:52.965Z,9.668082
2022-11-22T10:06:52.975Z,9.668103
2022-11-22T10:07:52.953Z,9.668088
2022-11-22T10:08:53.986Z,9.668076
2022-11-22T10:09:52.918Z,9.668024
2022-11-22T10:10:53.009Z,9.668025
2022-11-22T10:11:52.902Z,9.668060
2022-11-22T10:12:52.917Z,9.668045
2022-11-22T10:13:53.874Z,9.668027
2022-11-22T10:14:53.956Z,9.668034
2022-11-22T10:15:52.942Z,9.668040
2022-11-22T10:16:52.885Z,9.668026
2022-11-22T10:17:52.873Z,9.668056
2022-11-22T10:18:52.842Z,9.668043
2022-11-22T10:19:52.894Z,9.668049
2022-11-22T10:20:52.949Z,9.668027
2022-11-22T10:21:52.880Z,9.668049
2022-11-22T10:22:52.843Z,9.668032
2022-11-22T10:23:52.848Z,9.668043
2022-11-22T10:25:24.768Z,9.668062
2022-11-22T10:25:52.809Z,9.668089
2022-11-22T10:27:25.807Z,9.668057
2022-11-22T10:27:56.261Z,9.668070
2022-11-22T10:28:54.783Z,9.668080
2022-11-22T10:29:52.783Z,9.668101
2022-11-22T10:30:53.484Z,9.668063
2022-11-22T10:31:52.755Z,9.668067
2022-11-22T10:32:52.756Z,9.668034
2022-11-22T10:33:52.783Z,9.668054
2022-11-22T10:34:52.785Z,9.668060
2022-11-22T10:35:52.780Z,9.668040
2022-11-22T10:36:52.732Z,9.668041
2022-11-22T10:37:52.745Z,9.668041
2022-11-22T10:38:52.769Z,9.668040
2022-11-22T10:39:52.715Z,9.668025
2022-11-22T10:40:52.756Z,9.668025
2022-11-22T10:42:24.651Z,9.668036
2022-11-22T10:42:52.752Z,9.667999
2022-11-22T10:43:52.684Z,9.668063
2022-11-22T10:45:24.579Z,9.668031
2022-11-22T10:45:52.682Z,9.668022
2022-11-22T10:46:56.745Z,9.668020
2022-11-22T10:47:53.679Z,9.668015
2022-11-22T10:48:52.664Z,9.668031
2022-11-22T10:49:52.631Z,9.668040
2022-11-22T10:50:52.690Z,9.667988
2022-11-22T10:51:52.619Z,9.668067
2022-11-22T10:52:52.629Z,9.668053
2022-11-22T10:53:52.597Z,9.668017
2022-11-22T10:54:52.615Z,9.668020
2022-11-22T10:55:52.596Z,9.668010
2022-11-22T10:56:52.621Z,9.668019
2022-11-22T10:57:52.600Z,9.668015
2022-11-22T10:58:52.663Z,9.668042
2022-11-22T10:59:52.536Z,9.667983
2022-11-22T11:00:52.617Z,9.667986
2022-11-22T11:01:52.555Z,9.667974
2022-11-22T11:02:52.554Z,9.668015
2022-11-22T11:03:52.565Z,9.668006
2022-11-22T11:04:52.568Z,9.668013
2022-11-22T11:06:22.803Z,9.667981
2022-11-22T11:07:11.789Z,9.668021
2022-11-22T11:08:04.110Z,9.668071
2022-11-22T11:09:47.636Z,9.668056
2022-11-22T11:10:10.880Z,9.668032
2022-11-22T11:10:54.458Z,9.668009
2022-11-22T11:11:53.435Z,9.667925
2022-11-22T11:12:52.471Z,9.667979
2022-11-22T11:13:52.451Z,9.668097
2022-11-22T11:15:24.412Z,9.667996
2022-11-22T11:15:56.257Z,9.668043
2022-11-22T11:16:53.413Z,9.668114
2022-11-22T11:17:52.425Z,9.668021
2022-11-22T11:18:52.414Z,9.668039
2022-11-22T11:19:52.450Z,9.668036
2022-11-22T11:20:52.398Z,9.668011
2022-11-22T11:21:52.363Z,9.668068
2022-11-22T11:23:13.798Z,9.668028
2022-11-22T11:23:54.386Z,9.668012
2022-11-22T11:24:52.417Z,9.668021
2022-11-22T11:25:52.353Z,9.668023
2022-11-22T11:26:52.335Z,9.668049
2022-11-22T11:27:52.319Z,9.668018
2022-11-22T11:28:52.348Z,9.668043
2022-11-22T11:29:52.355Z,9.668040
2022-11-22T11:30:52.513Z,9.668008
2022-11-22T11:31:52.298Z,9.668057
2022-11-22T11:32:53.095Z,9.667994
2022-11-22T11:33:52.301Z,9.667991
2022-11-22T11:34:52.349Z,9.667939
2022-11-22T11:35:52.295Z,9.667962
2022-11-22T11:36:52.278Z,9.667950
2022-11-22T11:37:52.267Z,9.667939
2022-11-22T11:38:52.237Z,9.667973
2022-11-22T11:39:52.259Z,9.667939
2022-11-22T11:40:52.242Z,9.667958
2022-11-22T11:41:52.261Z,9.667946
2022-11-22T11:42:52.247Z,9.667956
2022-11-22T11:43:53.060Z,9.667955
2022-11-22T11:44:52.236Z,9.667978
2022-11-22T11:45:52.190Z,9.667997
2022-11-22T11:46:52.282Z,9.667935
2022-11-22T11:47:52.181Z,9.668007
2022-11-22T11:48:52.161Z,9.668050
2022-11-22T11:49:52.187Z,9.667974
2022-11-22T11:50:52.180Z,9.667971
2022-11-22T11:51:52.134Z,9.667975
2022-11-22T11:52:52.326Z,9.667933
2022-11-22T11:53:52.123Z,9.667957
2022-11-22T11:54:52.184Z,9.667887
2022-11-22T11:55:52.125Z,9.667919
2022-11-22T11:56:52.110Z,9.667873
2022-11-22T11:57:52.078Z,9.667858
2022-11-22T11:58:52.154Z,9.667785
2022-11-22T11:59:52.131Z,9.667754
2022-11-22T12:00:52.129Z,9.667828
2022-11-22T12:01:52.097Z,9.667764
2022-11-22T12:02:52.182Z,9.667788
2022-11-22T12:03:52.077Z,9.667757
2022-11-22T12:04:52.107Z,9.667725
2022-11-22T12:05:52.115Z,9.667849
2022-11-22T12:06:52.021Z,9.667960
2022-11-22T12:07:52.136Z,9.667974